Time;durP1;ratioP1;P1;durP2;ratioP2;P2;SDS_P1;SDS_P2;PMS_P1;PMS_P2;Temp;Humidity;BMP_temperature;BMP_pressure;BME280_temperature;BME280_humidity;BME280_pressure;Samples;Min_cycle;Max_cycle;Signal;HPM_P1;HPM_P2
2023/01/26 00:01:09;;;;;;;39.87;26.80;;;10.10;1.00;;;;;;5072251;28;20028;-59
2023/01/26 00:03:35;;;;;;;40.13;26.35;;;10.10;1.00;;;;;;5072285;28;20020;-59
2023/01/26 00:06:05;;;;;;;37.50;27.13;;;10.00;1.00;;;;;;5072099;28;20497;-59
2023/01/26 00:08:38;;;;;;;40.65;29.13;;;10.10;1.00;;;;;;5072319;28;20021;-59
2023/01/26 00:11:05;;;;;;;39.70;27.27;;;9.90;1.00;;;;;;5070883;28;20094;-59
2023/01/26 00:13:30;;;;;;;39.83;27.88;;;10.00;1.00;;;;;;5071981;28;20016;-59
2023/01/26 00:15:56;;;;;;;38.58;26.10;;;10.00;1.00;;;;;;5072218;28;20386;-60
2023/01/26 00:18:22;;;;;;;39.95;25.95;;;10.00;1.00;;;;;;5072407;28;20025;-59
2023/01/26 00:20:49;;;;;;;40.60;27.27;;;10.10;1.00;;;;;;5072055;28;20467;-58
2023/01/26 00:23:14;;;;;;;35.13;25.80;;;10.00;1.00;;;;;;5070869;28;20103;-59
2023/01/26 00:25:40;;;;;;;33.47;24.88;;;10.00;1.00;;;;;;5070677;28;20163;-59
2023/01/26 00:28:06;;;;;;;40.70;27.67;;;10.10;1.00;;;;;;5071762;28;20025;-59
2023/01/26 00:30:31;;;;;;;36.47;25.77;;;10.10;1.00;;;;;;5071854;28;20040;-60
2023/01/26 00:32:57;;;;;;;41.07;27.20;;;10.10;1.00;;;;;;5074855;28;20036;-59
2023/01/26 00:35:23;;;;;;;39.53;27.90;;;10.00;1.00;;;;;;5075578;28;20021;-59
2023/01/26 00:37:49;;;;;;;39.87;26.97;;;10.00;1.00;;;;;;5075609;28;20454;-59
2023/01/26 00:40:15;;;;;;;39.57;25.90;;;10.00;1.00;;;;;;5074436;28;20029;-59
2023/01/26 00:42:40;;;;;;;39.33;26.70;;;10.00;1.00;;;;;;5075453;28;20066;-59
2023/01/26 00:45:06;;;;;;;43.10;27.87;;;9.90;1.00;;;;;;5075682;28;20026;-59
2023/01/26 00:47:32;;;;;;;40.67;27.90;;;10.00;1.00;;;;;;5075460;28;20466;-59
2023/01/26 00:49:57;;;;;;;38.63;27.27;;;10.00;1.00;;;;;;5074155;28;20107;-59
2023/01/26 00:52:23;;;;;;;38.57;28.10;;;9.90;1.00;;;;;;5075272;28;20442;-59
2023/01/26 00:54:49;;;;;;;36.13;25.70;;;10.00;1.00;;;;;;5075455;28;20531;-59
2023/01/26 00:57:14;;;;;;;36.77;27.10;;;10.00;1.00;;;;;;5075443;28;20032;-59
2023/01/26 00:59:40;;;;;;;42.47;27.93;;;9.80;1.00;;;;;;5075216;28;20029;-59
2023/01/26 01:02:05;;;;;;;39.65;26.67;;;9.90;1.00;;;;;;5075294;28;20017;-59
2023/01/26 01:04:32;;;;;;;36.33;25.40;;;9.90;1.00;;;;;;5073951;28;20111;-59
2023/01/26 01:06:57;;;;;;;36.50;26.03;;;10.00;1.00;;;;;;5073842;28;20028;-59
2023/01/26 01:09:23;;;;;;;36.30;25.77;;;9.90;1.00;;;;;;5075058;28;20037;-58
2023/01/26 01:11:49;;;;;;;33.40;24.57;;;9.90;1.00;;;;;;5075090;28;20032;-59
2023/01/26 01:14:15;;;;;;;39.83;26.07;;;9.90;1.00;;;;;;5075411;28;20028;-59
2023/01/26 01:16:41;;;;;;;35.40;24.57;;;9.90;1.00;;;;;;5075223;28;20054;-58
2023/01/26 01:19:08;;;;;;;34.35;24.08;;;9.90;1.00;;;;;;5075050;28;20027;-58
2023/01/26 01:21:35;;;;;;;32.57;24.50;;;9.80;1.00;;;;;;5073420;28;20115;-59
2023/01/26 01:24:01;;;;;;;36.67;23.97;;;9.80;1.00;;;;;;5074954;28;20486;-59
2023/01/26 01:26:26;;;;;;;36.27;23.93;;;9.80;1.00;;;;;;5074827;28;20138;-59
2023/01/26 01:28:56;;;;;;;37.85;25.63;;;9.80;1.00;;;;;;5074628;28;20390;-59
2023/01/26 01:31:24;;;;;;;35.87;24.60;;;9.80;1.00;;;;;;5074874;28;20331;-59
2023/01/26 01:33:51;;;;;;;38.73;25.77;;;9.80;1.00;;;;;;5074835;28;20386;-59
2023/01/26 01:36:17;;;;;;;36.87;24.43;;;9.80;1.00;;;;;;5074838;28;20047;-59
2023/01/26 01:38:44;;;;;;;33.53;24.20;;;9.80;1.00;;;;;;5074600;28;20028;-59
2023/01/26 01:41:11;;;;;;;34.77;23.27;;;9.80;1.00;;;;;;5074663;28;20029;-59
2023/01/26 01:43:37;;;;;;;34.60;23.90;;;9.80;1.00;;;;;;5074117;28;20029;-59
2023/01/26 01:46:29;;;;;;;33.47;23.63;;;9.80;1.00;;;;;;5074353;28;20091;-60
2023/01/26 01:49:25;;;;;;;39.80;24.13;;;9.70;1.00;;;;;;5074563;28;20063;-59
2023/01/26 01:52:03;;;;;;;30.67;23.77;;;9.80;1.00;;;;;;5074796;28;20024;-59
2023/01/26 01:54:34;;;;;;;39.10;25.53;;;9.80;1.00;;;;;;5074440;28;20032;-59
2023/01/26 01:57:05;;;;;;;32.83;23.63;;;9.60;1.00;;;;;;5074487;28;20207;-59
2023/01/26 01:59:31;;;;;;;34.57;23.87;;;9.70;1.00;;;;;;5074581;28;20085;-59
2023/01/26 02:01:57;;;;;;;37.70;24.07;;;9.80;1.00;;;;;;5067536;28;20139;-60
2023/01/26 02:04:26;;;;;;;37.10;23.50;;;9.80;1.00;;;;;;5069999;28;20036;-59
2023/01/26 02:06:53;;;;;;;33.07;24.37;;;9.80;1.00;;;;;;5074011;28;20047;-60
2023/01/26 02:12:13;;;;;;;35.47;24.90;;;9.90;1.00;;;;;;5073616;28;20086;-59
2023/01/26 02:14:39;;;;;;;32.13;23.00;;;9.80;1.00;;;;;;5073085;28;20131;-60
2023/01/26 02:17:04;;;;;;;34.60;23.43;;;9.80;1.00;;;;;;5073360;28;20103;-60
2023/01/26 02:19:58;;;;;;;35.20;22.00;;;9.70;1.00;;;;;;5068651;28;20120;-60
2023/01/26 02:22:29;;;;;;;33.97;23.00;;;9.80;1.00;;;;;;5070483;28;20036;-59
2023/01/26 02:25:00;;;;;;;31.10;22.53;;;9.70;1.00;;;;;;5072294;28;20435;-59
2023/01/26 02:27:27;;;;;;;36.63;23.03;;;9.80;1.00;;;;;;5073872;28;20082;-59
2023/01/26 02:29:54;;;;;;;32.80;23.30;;;9.80;1.00;;;;;;5073170;28;20036;-60
2023/01/26 02:32:19;;;;;;;32.50;22.90;;;9.90;1.00;;;;;;5071948;28;20492;-59
2023/01/26 02:34:45;;;;;;;35.27;22.97;;;9.80;1.00;;;;;;5074033;28;20032;-59
2023/01/26 02:37:14;;;;;;;34.37;23.10;;;9.80;1.00;;;;;;5073337;28;20016;-60
2023/01/26 02:39:52;;;;;;;33.50;22.00;;;9.80;1.00;;;;;;5073434;28;20119;-60
2023/01/26 02:45:03;;;;;;;36.47;23.08;;;9.90;1.00;;;;;;5073462;28;20111;-60
2023/01/26 02:47:28;;;;;;;32.22;21.77;;;9.90;1.00;;;;;;5065924;28;20530;-59
2023/01/26 02:49:54;;;;;;;34.73;22.20;;;9.90;1.00;;;;;;5071158;28;20029;-59
2023/01/26 02:52:24;;;;;;;41.67;22.15;;;9.90;1.00;;;;;;5066812;28;20051;-60
2023/01/26 02:57:35;;;;;;;32.47;23.00;;;9.90;1.00;;;;;;5071918;28;20085;-60
2023/01/26 03:00:03;;;;;;;30.98;21.80;;;10.00;1.00;;;;;;5069446;28;20107;-59
2023/01/26 03:02:29;;;;;;;33.70;21.00;;;10.00;1.00;;;;;;5068226;28;20025;-59
2023/01/26 03:04:54;;;;;;;32.00;21.42;;;9.90;1.00;;;;;;5067344;28;20089;-59
2023/01/26 03:07:20;;;;;;;29.08;19.65;;;10.00;1.00;;;;;;5066931;28;20107;-59
2023/01/26 03:09:46;;;;;;;27.90;20.37;;;10.00;1.00;;;;;;5070138;28;20036;-59
2023/01/26 03:12:12;;;;;;;27.88;19.67;;;10.00;1.00;;;;;;5066787;28;20032;-59
2023/01/26 03:14:37;;;;;;;27.43;19.93;;;10.10;1.00;;;;;;5070947;28;20512;-59
2023/01/26 03:17:03;;;;;;;31.47;20.30;;;10.00;1.00;;;;;;5073073;28;20025;-60
2023/01/26 03:27:44;;;;;;;30.60;19.47;;;10.00;1.00;;;;;;5069166;28;20055;-59
2023/01/26 03:30:11;;;;;;;26.92;18.08;;;10.00;1.00;;;;;;5068866;28;20040;-60
2023/01/26 03:32:37;;;;;;;28.27;18.10;;;10.10;1.00;;;;;;5068523;28;20111;-60
2023/01/26 03:35:03;;;;;;;28.63;18.57;;;10.10;1.00;;;;;;5067654;28;20195;-60
2023/01/26 03:37:33;;;;;;;22.43;16.23;;;10.00;1.00;;;;;;5070433;28;20028;-60
2023/01/26 03:56:31;;;;;;;35.37;22.60;;;10.10;1.00;;;;;;5069528;28;20089;-60
2023/01/26 03:59:06;;;;;;;35.47;24.05;;;10.10;1.00;;;;;;5069126;28;20020;-60
2023/01/26 04:01:33;;;;;;;33.20;23.57;;;10.10;1.00;;;;;;5068664;28;20021;-59
2023/01/26 04:09:31;;;;;;;37.47;25.67;;;10.00;1.00;;;;;;5070886;28;20142;-60
2023/01/26 04:11:56;;;;;;;33.83;24.05;;;9.90;1.00;;;;;;5071543;28;20047;-60
2023/01/26 04:23:18;;;;;;;36.00;25.07;;;9.90;1.00;;;;;;5073006;28;20024;-58
2023/01/26 04:25:44;;;;;;;37.10;26.07;;;9.80;1.00;;;;;;5063900;28;20549;-60
2023/01/26 04:28:10;;;;;;;39.17;28.00;;;9.80;1.00;;;;;;5074455;28;20052;-60
2023/01/26 04:30:35;;;;;;;37.37;28.33;;;9.80;1.00;;;;;;5074819;28;20069;-60
2023/01/26 04:33:01;;;;;;;36.50;28.37;;;9.80;1.00;;;;;;5073462;28;20386;-60
2023/01/26 04:35:26;;;;;;;41.93;29.73;;;9.60;1.00;;;;;;5075832;28;20036;-60
2023/01/26 04:37:52;;;;;;;38.93;27.80;;;9.70;1.00;;;;;;5074745;28;20104;-60
2023/01/26 04:40:18;;;;;;;42.47;28.20;;;9.80;1.00;;;;;;5074919;28;20056;-59
2023/01/26 04:42:43;;;;;;;41.43;27.40;;;9.70;1.00;;;;;;5075986;28;20028;-60
2023/01/26 04:45:10;;;;;;;36.13;26.23;;;9.80;1.00;;;;;;5073713;28;20040;-58
2023/01/26 04:47:35;;;;;;;38.27;26.20;;;9.80;1.00;;;;;;5074043;28;20508;-58
2023/01/26 04:50:01;;;;;;;38.13;26.13;;;9.80;1.00;;;;;;5066642;28;20128;-59
2023/01/26 04:52:26;;;;;;;37.30;26.13;;;9.70;1.00;;;;;;5075184;28;20107;-58
2023/01/26 04:54:52;;;;;;;35.97;24.93;;;9.80;1.00;;;;;;5071415;28;20071;-58
2023/01/26 04:57:19;;;;;;;36.07;24.33;;;9.80;1.00;;;;;;5074623;28;20052;-60
2023/01/26 04:59:45;;;;;;;36.92;23.45;;;9.80;1.00;;;;;;5074763;28;20094;-59
2023/01/26 05:02:11;;;;;;;34.97;24.10;;;9.80;1.00;;;;;;5068196;28;20470;-59
2023/01/26 05:04:36;;;;;;;34.20;23.50;;;9.80;1.00;;;;;;5074014;28;20044;-58
2023/01/26 05:07:02;;;;;;;35.47;24.80;;;9.80;1.00;;;;;;5066447;28;20028;-59
2023/01/26 05:09:28;;;;;;;35.63;23.97;;;9.70;1.00;;;;;;5074660;28;20339;-59
2023/01/26 05:11:53;;;;;;;33.97;24.33;;;9.80;1.00;;;;;;5070383;28;20075;-59
2023/01/26 05:14:19;;;;;;;37.57;24.87;;;9.70;1.00;;;;;;5070318;28;20033;-58
2023/01/26 05:16:44;;;;;;;37.80;25.37;;;9.70;1.00;;;;;;5073227;28;20024;-58
2023/01/26 05:19:10;;;;;;;34.63;23.23;;;9.70;1.00;;;;;;5063311;28;20082;-58
2023/01/26 05:21:36;;;;;;;37.70;24.67;;;9.70;1.00;;;;;;5074602;28;20032;-58
2023/01/26 05:24:01;;;;;;;35.83;23.30;;;9.70;1.00;;;;;;5074409;28;20051;-59
2023/01/26 05:26:27;;;;;;;33.53;21.63;;;9.70;1.00;;;;;;5071359;28;20187;-59
2023/01/26 05:28:53;;;;;;;36.33;23.17;;;9.70;1.00;;;;;;5071685;28;20502;-59
2023/01/26 05:31:18;;;;;;;29.70;21.17;;;9.70;1.00;;;;;;5071097;28;20522;-59
2023/01/26 05:33:44;;;;;;;29.57;20.30;;;9.70;1.00;;;;;;5074138;28;20024;-58
2023/01/26 05:36:09;;;;;;;29.63;20.00;;;9.70;1.00;;;;;;5073946;28;20035;-59
2023/01/26 05:38:35;;;;;;;29.57;20.57;;;9.70;1.00;;;;;;5072733;28;20474;-59
2023/01/26 05:41:01;;;;;;;31.07;20.80;;;9.60;1.00;;;;;;5072366;28;20032;-58
2023/01/26 05:43:26;;;;;;;29.90;18.70;;;9.70;1.00;;;;;;5074916;28;20054;-59
2023/01/26 05:45:52;;;;;;;31.23;20.50;;;9.70;1.00;;;;;;5065860;28;20035;-58
2023/01/26 05:48:17;;;;;;;31.20;20.07;;;9.70;1.00;;;;;;5061362;28;20063;-59
2023/01/26 05:50:43;;;;;;;32.67;20.67;;;9.60;1.00;;;;;;5071923;28;20055;-58
2023/01/26 05:53:09;;;;;;;28.87;20.53;;;9.60;1.00;;;;;;5078158;28;20017;-59
2023/01/26 05:55:34;;;;;;;28.07;19.70;;;9.60;1.00;;;;;;5072234;28;20124;-59
2023/01/26 05:58:00;;;;;;;32.60;20.17;;;9.60;1.00;;;;;;5063061;28;20052;-59
2023/01/26 06:00:26;;;;;;;26.97;19.50;;;9.60;1.00;;;;;;5072068;28;20390;-58
2023/01/26 06:02:51;;;;;;;27.60;18.52;;;9.60;1.00;;;;;;5066850;28;20466;-59
2023/01/26 06:05:17;;;;;;;29.00;20.17;;;9.60;1.00;;;;;;5070165;28;20103;-58
2023/01/26 06:07:43;;;;;;;27.73;19.83;;;9.70;1.00;;;;;;5074228;28;20457;-58
2023/01/26 06:10:09;;;;;;;27.33;18.83;;;9.60;1.00;;;;;;5071132;28;20517;-59
2023/01/26 06:12:35;;;;;;;27.40;19.87;;;9.60;1.00;;;;;;5073893;28;20016;-60
2023/01/26 06:15:01;;;;;;;27.83;18.33;;;9.70;1.00;;;;;;5073231;28;20032;-59
2023/01/26 06:17:27;;;;;;;29.40;19.97;;;9.60;1.00;;;;;;5059531;28;20119;-60
2023/01/26 06:19:53;;;;;;;27.70;18.43;;;9.50;1.00;;;;;;5072919;28;20473;-60
2023/01/26 06:22:18;;;;;;;27.57;19.97;;;9.40;1.00;;;;;;5068785;28;20031;-59
2023/01/26 06:24:44;;;;;;;27.47;19.33;;;9.40;1.00;;;;;;5066733;28;20045;-59
2023/01/26 06:27:15;;;;;;;30.60;20.90;;;9.40;1.00;;;;;;5071236;28;20148;-59
2023/01/26 06:29:41;;;;;;;29.60;20.53;;;9.40;1.00;;;;;;5069712;28;20036;-59
2023/01/26 06:32:09;;;;;;;29.10;19.03;;;9.30;1.00;;;;;;5073578;28;20040;-60
2023/01/26 06:34:34;;;;;;;31.27;20.40;;;9.10;1.00;;;;;;5071445;28;20024;-59
2023/01/26 06:37:00;;;;;;;29.50;19.97;;;8.70;1.00;;;;;;5068402;28;20032;-59
2023/01/26 06:39:25;;;;;;;28.63;19.17;;;9.00;1.00;;;;;;5072998;28;20028;-59
2023/01/26 06:41:51;;;;;;;29.10;19.33;;;9.20;1.00;;;;;;5070493;28;20020;-59
2023/01/26 06:44:17;;;;;;;27.57;18.87;;;9.20;1.00;;;;;;5065451;28;20154;-59
2023/01/26 06:46:42;;;;;;;25.73;18.67;;;9.10;1.00;;;;;;5069104;28;20066;-59
2023/01/26 06:49:08;;;;;;;26.10;18.77;;;9.10;1.00;;;;;;5073155;28;20033;-59
2023/01/26 06:51:54;;;;;;;25.17;17.80;;;9.00;1.00;;;;;;5066325;28;20020;-59
2023/01/26 06:54:20;;;;;;;24.43;17.10;;;8.90;1.00;;;;;;5072021;28;20082;-59
2023/01/26 06:56:45;;;;;;;27.97;19.27;;;8.90;1.00;;;;;;5072668;28;20032;-59
2023/01/26 06:59:17;;;;;;;28.37;18.20;;;9.00;1.00;;;;;;5067352;28;20081;-59
2023/01/26 07:01:47;;;;;;;26.27;18.30;;;9.00;1.00;;;;;;5067090;28;20398;-59
2023/01/26 07:04:13;;;;;;;28.97;18.03;;;8.90;1.00;;;;;;5068892;28;20024;-59
2023/01/26 07:06:39;;;;;;;27.60;18.77;;;8.90;1.00;;;;;;5073338;28;20092;-60
2023/01/26 07:09:04;;;;;;;28.77;19.30;;;8.90;1.00;;;;;;5077579;28;20123;-60
2023/01/26 07:11:31;;;;;;;24.97;18.43;;;8.90;1.00;;;;;;5072633;28;20033;-59
2023/01/26 07:13:57;;;;;;;28.40;20.80;;;8.90;1.00;;;;;;5071262;28;20021;-60
2023/01/26 07:16:23;;;;;;;27.77;20.10;;;8.80;1.00;;;;;;5083402;28;20120;-59
2023/01/26 07:18:48;;;;;;;26.97;19.03;;;8.80;1.00;;;;;;5070112;28;20104;-60
2023/01/26 07:21:17;;;;;;;29.93;19.20;;;8.80;1.00;;;;;;5070083;28;20050;-60
2023/01/26 07:23:43;;;;;;;27.63;20.10;;;8.80;1.00;;;;;;5070672;28;20029;-60
2023/01/26 07:26:09;;;;;;;35.77;21.80;;;8.70;1.00;;;;;;5070966;28;20044;-60
2023/01/26 07:29:06;;;;;;;28.43;20.70;;;8.80;1.00;;;;;;5070754;28;20035;-60
2023/01/26 07:31:31;;;;;;;31.77;21.50;;;8.80;1.00;;;;;;5075138;28;20041;-60
2023/01/26 07:33:57;;;;;;;29.07;21.03;;;8.90;1.00;;;;;;5060707;28;20059;-60
2023/01/26 07:36:23;;;;;;;31.30;20.93;;;9.00;1.00;;;;;;5067474;28;20038;-60
2023/01/26 07:38:48;;;;;;;31.07;20.57;;;9.00;1.00;;;;;;5067635;28;20028;-61
2023/01/26 07:41:14;;;;;;;34.07;20.77;;;8.90;1.00;;;;;;5069202;28;20470;-61
2023/01/26 07:43:41;;;;;;;31.77;21.20;;;8.80;1.00;;;;;;5065509;28;20413;-61
2023/01/26 07:46:09;;;;;;;31.80;20.33;;;8.90;1.00;;;;;;5068887;28;20052;-61
2023/01/26 07:48:35;;;;;;;25.93;18.97;;;8.90;1.00;;;;;;5066043;28;20071;-61
2023/01/26 07:51:03;;;;;;;29.43;18.50;;;8.90;1.00;;;;;;5071808;28;20400;-61
2023/01/26 07:53:32;;;;;;;33.63;19.77;;;9.00;1.00;;;;;;5072601;28;20178;-61
2023/01/26 07:56:10;;;;;;;27.23;19.43;;;8.90;1.00;;;;;;5070888;28;20064;-61
2023/01/26 07:58:36;;;;;;;38.90;20.13;;;9.00;1.00;;;;;;5066390;28;20028;-63
2023/01/26 08:01:12;;;;;;;31.37;19.93;;;8.90;1.00;;;;;;5070248;28;20017;-56
2023/01/26 08:03:39;;;;;;;27.70;19.57;;;8.90;1.00;;;;;;5068824;28;20378;-54
2023/01/26 08:06:05;;;;;;;28.10;18.10;;;8.80;1.00;;;;;;5072174;28;20107;-54
2023/01/26 08:08:31;;;;;;;26.17;18.67;;;8.90;1.00;;;;;;5072181;28;20020;-51
2023/01/26 08:10:59;;;;;;;25.73;17.73;;;8.80;1.00;;;;;;5069963;28;20932;-54
2023/01/26 08:13:26;;;;;;;28.73;18.20;;;8.70;1.00;;;;;;5071834;28;20009;-54
2023/01/26 08:15:51;;;;;;;27.47;18.20;;;8.80;1.00;;;;;;5071714;28;20024;-53
2023/01/26 08:18:17;;;;;;;26.03;16.63;;;9.00;1.00;;;;;;5072092;28;20029;-52
2023/01/26 08:20:49;;;;;;;24.70;16.47;;;9.00;1.00;;;;;;5076973;28;20160;-52
2023/01/26 08:23:15;;;;;;;22.93;17.07;;;8.90;1.00;;;;;;5070562;28;20037;-49
2023/01/26 08:25:40;;;;;;;26.00;17.37;;;9.00;1.00;;;;;;5071698;28;20053;-50
2023/01/26 08:28:06;;;;;;;22.27;15.53;;;9.00;1.00;;;;;;5071923;28;20390;-51
2023/01/26 08:30:32;;;;;;;24.67;15.77;;;8.90;1.00;;;;;;5071915;28;20037;-49
2023/01/26 08:36:24;;;;;;;22.47;15.90;;;9.00;1.00;;;;;;5060246;28;20158;-52
2023/01/26 08:38:51;;;;;;;22.80;14.80;;;8.80;1.00;;;;;;5059221;28;20024;-49
2023/01/26 08:41:17;;;;;;;23.27;14.00;;;9.00;1.00;;;;;;5071920;28;20021;-51
2023/01/26 08:43:42;;;;;;;20.90;15.17;;;9.00;1.00;;;;;;5073343;28;20426;-49
2023/01/26 08:46:08;;;;;;;26.03;16.13;;;9.10;1.00;;;;;;5071682;28;20021;-50
2023/01/26 08:48:34;;;;;;;22.80;14.57;;;9.20;1.00;;;;;;5071780;28;20029;-50
2023/01/26 08:51:03;;;;;;;22.90;12.67;;;9.20;1.00;;;;;;5071408;28;20098;-52
2023/01/26 08:53:31;;;;;;;21.23;14.10;;;9.20;1.00;;;;;;5072849;28;20048;-55
2023/01/26 08:55:56;;;;;;;16.97;12.03;;;9.10;1.00;;;;;;5074807;28;20044;-51
2023/01/26 08:58:22;;;;;;;27.97;15.30;;;9.20;1.00;;;;;;5074081;28;20036;-58
2023/01/26 09:00:48;;;;;;;26.20;15.73;;;9.10;1.00;;;;;;5067968;28;20410;-52
2023/01/26 09:03:13;;;;;;;21.30;13.27;;;9.20;1.00;;;;;;5071611;28;20037;-55
2023/01/26 09:05:40;;;;;;;16.20;11.73;;;9.10;1.00;;;;;;5073039;28;20047;-56
2023/01/26 09:08:07;;;;;;;16.60;11.30;;;9.00;1.00;;;;;;5070337;28;20060;-62
2023/01/26 09:10:35;;;;;;;20.60;13.93;;;9.10;1.00;;;;;;5076166;28;20032;-62
2023/01/26 09:13:01;;;;;;;20.50;12.93;;;9.00;1.00;;;;;;5072562;28;20027;-62
2023/01/26 09:15:27;;;;;;;18.07;12.77;;;9.10;1.00;;;;;;5074505;28;20100;-50
2023/01/26 09:17:52;;;;;;;18.37;13.37;;;9.40;1.00;;;;;;5075034;28;20031;-52
2023/01/26 09:20:19;;;;;;;17.00;11.07;;;9.40;1.00;;;;;;5107226;28;20523;-56
2023/01/26 09:22:45;;;;;;;20.43;12.67;;;9.40;1.00;;;;;;5074938;28;20021;-52
2023/01/26 09:25:11;;;;;;;16.33;11.60;;;9.50;1.00;;;;;;5072442;28;20178;-55
2023/01/26 09:27:37;;;;;;;19.00;12.10;;;9.60;1.00;;;;;;5074460;28;20074;-50
2023/01/26 09:30:05;;;;;;;19.63;11.93;;;9.70;1.00;;;;;;5072590;28;20479;-55
2023/01/26 09:32:31;;;;;;;18.73;12.67;;;9.70;1.00;;;;;;5073024;28;20166;-52
2023/01/26 09:34:56;;;;;;;18.73;11.37;;;9.70;1.00;;;;;;5070432;28;20532;-51
2023/01/26 09:37:22;;;;;;;16.90;11.43;;;9.80;1.00;;;;;;5067890;28;20021;-55
2023/01/26 09:39:48;;;;;;;15.38;11.13;;;9.80;1.00;;;;;;5072496;28;20024;-53
2023/01/26 09:42:23;;;;;;;21.13;12.57;;;9.80;1.00;;;;;;5073815;28;20025;-54
2023/01/26 09:45:00;;;;;;;19.80;11.57;;;9.80;1.00;;;;;;5065009;28;20029;-54
2023/01/26 09:47:32;;;;;;;14.77;10.23;;;9.70;1.00;;;;;;5074172;28;20021;-53
2023/01/26 09:50:03;;;;;;;15.53;11.00;;;9.80;1.00;;;;;;5074045;28;20386;-55
2023/01/26 09:52:33;;;;;;;16.37;11.50;;;9.90;1.00;;;;;;5073175;28;20364;-52
2023/01/26 09:55:02;;;;;;;19.88;12.00;;;9.80;1.00;;;;;;5074179;28;20029;-53
2023/01/26 09:57:32;;;;;;;22.23;12.40;;;9.80;1.00;;;;;;5068324;28;20020;-52
2023/01/26 10:00:10;;;;;;;16.73;11.63;;;9.90;1.00;;;;;;5073603;28;20025;-55
2023/01/26 10:02:41;;;;;;;18.48;11.93;;;9.90;1.00;;;;;;5073709;28;20029;-56
2023/01/26 10:05:34;;;;;;;19.03;10.73;;;9.90;1.00;;;;;;5073820;28;20385;-56
2023/01/26 10:08:01;;;;;;;19.27;11.48;;;9.90;1.00;;;;;;5073659;28;20330;-55
2023/01/26 10:10:31;;;;;;;19.08;11.60;;;9.90;1.00;;;;;;5072817;28;20064;-53
2023/01/26 10:12:58;;;;;;;18.50;10.82;;;9.90;1.00;;;;;;5061815;28;20474;-53
2023/01/26 10:15:37;;;;;;;18.63;11.87;;;9.90;1.00;;;;;;5073549;28;20024;-56
2023/01/26 10:18:15;;;;;;;20.07;12.87;;;10.10;1.00;;;;;;5073757;28;20051;-52
2023/01/26 10:20:46;;;;;;;15.55;9.35;;;10.10;1.00;;;;;;5071912;28;20397;-55
2023/01/26 10:23:41;;;;;;;15.93;10.50;;;10.20;1.00;;;;;;5079542;28;20028;-54
2023/01/26 10:26:19;;;;;;;17.88;10.50;;;10.10;1.00;;;;;;5061970;28;20512;-55
2023/01/26 10:28:48;;;;;;;15.85;10.27;;;10.10;1.00;;;;;;5073511;28;20025;-54
2023/01/26 10:31:29;;;;;;;15.73;9.43;;;10.20;1.00;;;;;;5072660;28;20170;-53
2023/01/26 10:34:08;;;;;;;19.35;10.98;;;10.10;1.00;;;;;;5083011;28;20032;-56
2023/01/26 10:36:34;;;;;;;21.65;13.25;;;10.10;1.00;;;;;;5071080;28;20470;-56
2023/01/26 10:39:04;;;;;;;19.92;12.75;;;10.20;1.00;;;;;;5073390;28;20035;-55
2023/01/26 10:41:30;;;;;;;17.63;11.80;;;10.30;1.00;;;;;;5073363;28;20028;-55
2023/01/26 10:43:58;;;;;;;19.27;13.55;;;10.10;1.00;;;;;;5073501;28;20029;-54
2023/01/26 10:46:36;;;;;;;18.67;12.70;;;10.00;1.00;;;;;;5070071;28;20035;-54
2023/01/26 10:49:23;;;;;;;18.58;12.30;;;10.30;1.00;;;;;;5085048;28;20040;-55
2023/01/26 10:52:24;;;;;;;16.55;13.10;;;10.40;1.00;;;;;;5078053;28;20029;-53
2023/01/26 10:55:18;;;;;;;16.75;10.95;;;10.40;1.00;;;;;;5011271;28;20025;-54
2023/01/26 10:57:44;;;;;;;18.60;11.50;;;10.30;1.00;;;;;;5060379;28;20505;-58
2023/01/26 11:00:16;;;;;;;16.17;10.95;;;10.20;1.00;;;;;;5073139;28;20024;-56
2023/01/26 11:02:49;;;;;;;17.38;11.65;;;10.30;1.00;;;;;;5059701;28;20036;-57
2023/01/26 11:05:21;;;;;;;22.35;12.93;;;10.40;1.00;;;;;;5073258;28;20101;-59
2023/01/26 11:07:50;;;;;;;21.85;13.38;;;10.60;1.00;;;;;;5069823;28;20534;-57
2023/01/26 11:10:25;;;;;;;17.80;11.98;;;10.40;1.00;;;;;;5072840;28;20045;-58
2023/01/26 11:13:20;;;;;;;14.87;10.97;;;10.50;1.00;;;;;;5059877;28;20116;-61
2023/01/26 11:16:09;;;;;;;20.25;13.50;;;10.50;1.00;;;;;;5072898;28;20394;-59
2023/01/26 11:18:58;;;;;;;18.05;12.02;;;10.60;1.00;;;;;;5061264;28;20044;-51
2023/01/26 11:21:35;;;;;;;14.23;11.45;;;10.70;1.00;;;;;;5062706;28;20054;-50
2023/01/26 11:24:32;;;;;;;16.55;12.18;;;10.70;1.00;;;;;;5078391;28;20036;-56
2023/01/26 11:27:15;;;;;;;20.30;13.55;;;10.60;1.00;;;;;;5064871;28;20350;-57
2023/01/26 11:30:30;;;;;;;16.88;12.23;;;10.60;1.00;;;;;;5072258;28;20044;-59
2023/01/26 11:33:05;;;;;;;17.95;13.43;;;10.70;1.00;;;;;;5056768;28;20060;-58
2023/01/26 11:35:48;;;;;;;16.70;11.50;;;10.60;1.00;;;;;;5070336;28;20024;-59
2023/01/26 11:38:26;;;;;;;14.88;11.48;;;10.70;1.00;;;;;;5051528;28;20028;-59
2023/01/26 11:41:05;;;;;;;17.38;12.30;;;10.50;1.00;;;;;;5077728;28;20536;-58
2023/01/26 11:43:53;;;;;;;16.70;12.38;;;10.60;1.00;;;;;;5075341;28;20134;-58
2023/01/26 11:46:33;;;;;;;16.98;11.40;;;10.40;1.00;;;;;;5072283;28;20048;-57
2023/01/26 11:49:16;;;;;;;17.90;12.80;;;10.50;1.00;;;;;;5077991;28;20032;-68
2023/01/26 11:51:57;;;;;;;19.13;12.48;;;10.50;1.00;;;;;;5072863;28;20509;-72
2023/01/26 11:54:35;;;;;;;20.63;11.95;;;10.80;1.00;;;;;;5072865;28;20029;-71
2023/01/26 11:57:09;;;;;;;18.20;12.77;;;11.00;1.00;;;;;;5072797;28;20482;-69
2023/01/26 11:59:40;;;;;;;16.17;11.25;;;10.90;1.00;;;;;;5072576;28;20080;-59
2023/01/26 12:02:33;;;;;;;20.65;13.65;;;10.70;1.00;;;;;;5072434;28;20028;-62
2023/01/26 12:05:07;;;;;;;22.35;12.48;;;10.80;1.00;;;;;;5071780;28;20390;-59
2023/01/26 12:07:55;;;;;;;18.90;11.77;;;10.90;1.00;;;;;;5072365;28;20067;-61
2023/01/26 12:10:40;;;;;;;20.10;12.35;;;10.80;1.00;;;;;;5072946;28;20036;-74
2023/01/26 12:13:33;;;;;;;19.77;13.30;;;10.60;1.00;;;;;;5069763;28;20042;-67
2023/01/26 12:16:08;;;;;;;17.65;13.13;;;10.50;1.00;;;;;;5070201;28;20478;-61
2023/01/26 12:18:50;;;;;;;17.80;12.60;;;10.60;1.00;;;;;;5072073;28;20032;-62
2023/01/26 12:21:19;;;;;;;26.67;16.15;;;10.70;1.00;;;;;;5072152;28;20039;-60
2023/01/26 12:23:58;;;;;;;24.73;17.17;;;10.60;1.00;;;;;;5071958;28;20021;-59
2023/01/26 12:26:27;;;;;;;22.90;14.63;;;10.70;1.00;;;;;;5069809;28;20049;-66
2023/01/26 12:29:24;;;;;;;25.77;16.42;;;10.70;1.00;;;;;;5070019;28;20382;-69
2023/01/26 12:32:08;;;;;;;22.08;15.57;;;10.70;1.00;;;;;;5070894;28;20098;-50
2023/01/26 12:34:34;;;;;;;25.90;14.73;;;10.70;1.00;;;;;;5075751;28;20025;-51
2023/01/26 12:37:19;;;;;;;20.50;14.30;;;10.60;1.00;;;;;;5069823;28;20567;-49
2023/01/26 12:39:49;;;;;;;22.77;14.07;;;10.60;1.00;;;;;;5075672;28;20131;-52
2023/01/26 12:42:28;;;;;;;20.45;13.00;;;10.50;1.00;;;;;;5075394;28;20032;-51
2023/01/26 12:45:00;;;;;;;25.90;14.32;;;10.60;1.00;;;;;;5075304;28;20025;-50
2023/01/26 12:47:40;;;;;;;18.98;13.25;;;10.70;1.00;;;;;;5072099;28;20478;-51
2023/01/26 12:50:13;;;;;;;19.98;13.65;;;10.70;1.00;;;;;;5075250;28;20068;-53
2023/01/26 12:53:09;;;;;;;25.08;13.73;;;10.90;1.00;;;;;;5074738;28;20047;-55
2023/01/26 12:55:53;;;;;;;20.23;13.15;;;10.90;1.00;;;;;;5074024;28;20020;-53
2023/01/26 12:58:41;;;;;;;23.10;14.30;;;11.00;1.00;;;;;;5071961;28;20525;-54
2023/01/26 13:01:13;;;;;;;23.23;14.63;;;11.10;1.00;;;;;;5070297;28;20025;-50
2023/01/26 13:04:03;;;;;;;23.40;14.60;;;11.40;1.00;;;;;;5073395;28;20478;-53
2023/01/26 13:06:29;;;;;;;28.98;15.45;;;11.50;1.00;;;;;;5075815;28;20070;-54
2023/01/26 13:09:04;;;;;;;24.77;15.00;;;11.50;1.00;;;;;;5066199;28;20421;-54
2023/01/26 13:11:46;;;;;;;21.08;14.07;;;11.60;1.00;;;;;;5070614;28;20120;-53
2023/01/26 13:14:27;;;;;;;19.75;13.40;;;11.60;1.00;;;;;;5070251;28;20025;-51
2023/01/26 13:16:53;;;;;;;20.13;13.15;;;11.70;1.00;;;;;;5073555;28;20023;-53
2023/01/26 13:19:40;;;;;;;19.85;13.90;;;11.70;1.00;;;;;;5074930;28;20416;-50
2023/01/26 13:22:26;;;;;;;22.95;14.57;;;11.60;1.00;;;;;;5072493;28;20040;-50
2023/01/26 13:25:11;;;;;;;24.83;13.68;;;11.40;1.00;;;;;;5071195;28;20025;-55
2023/01/26 13:27:37;;;;;;;21.98;13.85;;;11.40;1.00;;;;;;5073523;28;20032;-61
2023/01/26 13:30:25;;;;;;;25.55;13.85;;;11.20;1.00;;;;;;5073436;28;20036;-61
2023/01/26 13:32:58;;;;;;;22.48;14.32;;;11.30;1.00;;;;;;5067520;28;20040;-60
2023/01/26 13:35:25;;;;;;;21.15;13.90;;;11.40;1.00;;;;;;5074403;28;20048;-60
2023/01/26 13:38:24;;;;;;;26.33;15.50;;;11.50;1.00;;;;;;5074039;28;20547;-59
2023/01/26 13:40:50;;;;;;;22.30;14.43;;;11.40;1.00;;;;;;5071624;28;20452;-60
2023/01/26 13:43:26;;;;;;;24.33;14.70;;;11.60;1.00;;;;;;5069516;28;20013;-60
2023/01/26 13:46:12;;;;;;;24.48;15.70;;;11.50;1.00;;;;;;5074483;28;20433;-59
2023/01/26 13:48:38;;;;;;;23.73;14.68;;;11.60;1.00;;;;;;5071558;28;20040;-60
2023/01/26 13:51:06;;;;;;;21.15;13.57;;;11.20;1.00;;;;;;5074563;28;20045;-63